Time;durP1;ratioP1;P1;durP2;ratioP2;P2;SDS_P1;SDS_P2;PMS_P1;PMS_P2;Temp;Humidity;BMP_temperature;BMP_pressure;BME280_temperature;BME280_humidity;BME280_pressure;Samples;Min_cycle;Max_cycle;Signal;HPM_P1;HPM_P2
2022/11/01 00:01:55;;;;;;;13.97;13.10;;;17.70;99.90;;;;;;5044870;28;20758;-68
2022/11/01 00:04:24;;;;;;;18.60;14.00;;;17.70;99.90;;;;;;5046124;28;20509;-69
2022/11/01 00:06:51;;;;;;;14.30;13.37;;;17.70;99.90;;;;;;5039434;28;20466;-70
2022/11/01 00:09:18;;;;;;;15.47;13.97;;;17.70;99.90;;;;;;5033433;28;20503;-69
2022/11/01 00:11:45;;;;;;;14.10;13.00;;;17.70;99.90;;;;;;5042965;28;20510;-68
2022/11/01 00:14:13;;;;;;;15.10;13.90;;;17.60;99.90;;;;;;5045152;28;20881;-70
2022/11/01 00:16:40;;;;;;;14.67;13.57;;;17.60;99.90;;;;;;5046518;28;20814;-68
2022/11/01 00:19:08;;;;;;;14.10;12.93;;;17.60;99.90;;;;;;5046033;28;20463;-68
2022/11/01 00:21:37;;;;;;;14.87;12.90;;;17.60;99.90;;;;;;5046650;28;20475;-68
2022/11/01 00:24:05;;;;;;;15.03;13.40;;;17.50;99.90;;;;;;5039392;28;20463;-67
2022/11/01 00:26:32;;;;;;;13.33;12.40;;;17.50;99.90;;;;;;5045547;28;20499;-69
2022/11/01 00:28:58;;;;;;;13.80;12.40;;;17.40;99.90;;;;;;5045947;28;20495;-69
2022/11/01 00:31:26;;;;;;;14.17;12.90;;;17.40;99.90;;;;;;5045685;28;20480;-68
2022/11/01 00:33:53;;;;;;;13.53;12.60;;;17.50;99.90;;;;;;5046090;28;20471;-69
2022/11/01 00:36:20;;;;;;;13.70;12.60;;;17.60;99.90;;;;;;5042198;28;20491;-68
2022/11/01 00:38:51;;;;;;;13.03;12.23;;;17.60;99.90;;;;;;5047325;28;20468;-68
2022/11/01 00:41:19;;;;;;;13.13;12.07;;;17.70;99.90;;;;;;5045619;28;20827;-67
2022/11/01 00:43:46;;;;;;;13.77;12.60;;;17.70;99.90;;;;;;5035178;28;20901;-68
2022/11/01 00:46:13;;;;;;;13.27;12.00;;;17.80;99.90;;;;;;5042728;28;20669;-69
2022/11/01 00:48:40;;;;;;;14.67;12.30;;;17.80;99.90;;;;;;5044954;28;20523;-68
2022/11/01 00:51:07;;;;;;;14.20;12.60;;;17.80;99.90;;;;;;5045635;28;20464;-69
2022/11/01 00:53:34;;;;;;;12.87;12.13;;;17.80;99.90;;;;;;5047959;28;20455;-68
2022/11/01 00:56:05;;;;;;;13.10;12.10;;;17.80;99.90;;;;;;5046430;28;20464;-68
2022/11/01 00:58:32;;;;;;;13.93;12.90;;;17.70;99.90;;;;;;5041884;28;20949;-68
2022/11/01 01:01:00;;;;;;;12.33;11.43;;;17.70;99.90;;;;;;5041589;28;20742;-68
2022/11/01 01:03:27;;;;;;;12.93;12.03;;;17.80;99.90;;;;;;5042206;28;20456;-68
2022/11/01 01:05:54;;;;;;;13.57;12.43;;;17.80;99.90;;;;;;5045204;28;20464;-68
2022/11/01 01:08:22;;;;;;;12.67;11.77;;;17.80;99.90;;;;;;5046877;28;21085;-69
2022/11/01 01:10:50;;;;;;;12.63;11.63;;;17.80;99.90;;;;;;5044814;28;21320;-67
2022/11/01 01:13:20;;;;;;;13.83;12.60;;;17.80;99.90;;;;;;5044763;28;20976;-69
2022/11/01 01:15:46;;;;;;;11.90;11.20;;;17.80;99.90;;;;;;5045281;28;20498;-68
2022/11/01 01:18:13;;;;;;;21.60;12.20;;;17.80;99.90;;;;;;5043953;28;20864;-70
2022/11/01 01:20:40;;;;;;;12.80;11.90;;;17.70;99.90;;;;;;5045222;28;20464;-68
2022/11/01 01:23:07;;;;;;;12.90;11.70;;;17.70;99.90;;;;;;5044035;28;20464;-68
2022/11/01 01:25:34;;;;;;;12.30;11.17;;;17.70;99.90;;;;;;5044998;28;20464;-68
2022/11/01 01:28:01;;;;;;;12.13;11.27;;;17.60;99.90;;;;;;5036732;28;21035;-69
2022/11/01 01:30:29;;;;;;;12.50;11.70;;;17.60;99.90;;;;;;5043720;28;20463;-68
2022/11/01 01:32:57;;;;;;;13.10;11.97;;;17.60;99.90;;;;;;5046242;28;20488;-68
2022/11/01 01:35:24;;;;;;;12.23;11.43;;;17.60;99.90;;;;;;5045261;28;20460;-68
2022/11/01 01:37:51;;;;;;;13.20;12.30;;;17.70;99.90;;;;;;5043479;28;21486;-68
2022/11/01 01:40:17;;;;;;;13.03;11.83;;;17.70;99.90;;;;;;5045771;28;20825;-68
2022/11/01 01:42:46;;;;;;;12.53;11.40;;;17.70;99.90;;;;;;5046852;28;20456;-70
2022/11/01 01:45:36;;;;;;;12.40;11.40;;;17.70;99.90;;;;;;5042271;28;20459;-68
2022/11/01 01:48:20;;;;;;;12.70;11.60;;;17.60;99.90;;;;;;5043424;28;20566;-70
2022/11/01 01:50:52;;;;;;;13.00;11.80;;;17.70;99.90;;;;;;5047312;28;20462;-70
2022/11/01 01:53:26;;;;;;;12.23;10.87;;;17.60;99.90;;;;;;5051546;28;20566;-68
2022/11/01 01:55:57;;;;;;;14.03;11.00;;;17.60;99.90;;;;;;5045305;28;20462;-68
2022/11/01 01:58:28;;;;;;;11.50;10.80;;;17.60;99.90;;;;;;5051372;28;20470;-68
2022/11/01 02:00:57;;;;;;;11.27;10.47;;;17.50;99.90;;;;;;5053253;28;20464;-68
2022/11/01 02:03:27;;;;;;;12.00;10.90;;;17.50;99.90;;;;;;5050519;28;20462;-68
2022/11/01 02:05:57;;;;;;;11.70;11.00;;;17.40;99.90;;;;;;5050513;28;20462;-68
2022/11/01 02:08:27;;;;;;;12.10;10.97;;;17.40;99.90;;;;;;5050857;28;20487;-69
2022/11/01 02:10:56;;;;;;;10.93;10.10;;;17.30;99.90;;;;;;5051015;28;20459;-68
2022/11/01 02:13:23;;;;;;;11.50;10.73;;;17.30;99.90;;;;;;5047423;28;20768;-68
2022/11/01 02:16:07;;;;;;;12.03;10.80;;;17.30;99.90;;;;;;5047230;28;20470;-69
2022/11/01 02:18:43;;;;;;;10.73;9.93;;;17.30;99.90;;;;;;5049045;28;20540;-68
2022/11/01 02:21:33;;;;;;;11.57;10.57;;;17.30;99.90;;;;;;5043818;28;21064;-69
2022/11/01 02:24:48;;;;;;;12.03;9.93;;;17.30;99.90;;;;;;5046936;28;20468;-69
2022/11/01 02:27:23;;;;;;;10.90;10.10;;;17.20;99.90;;;;;;4959334;28;20470;-71
2022/11/01 02:30:11;;;;;;;11.07;10.23;;;17.20;99.90;;;;;;5029093;28;20823;-71
2022/11/01 02:32:46;;;;;;;11.10;10.20;;;17.20;99.90;;;;;;5045758;28;20477;-69
2022/11/01 02:35:21;;;;;;;10.47;9.87;;;17.20;99.90;;;;;;5048076;28;20473;-70
2022/11/01 02:37:54;;;;;;;12.70;10.97;;;17.10;99.90;;;;;;5046946;28;20956;-70
2022/11/01 02:40:28;;;;;;;12.40;11.03;;;17.10;99.90;;;;;;5050813;28;20502;-70
2022/11/01 02:43:01;;;;;;;11.00;9.80;;;17.00;99.90;;;;;;5048556;28;20562;-71
2022/11/01 02:45:32;;;;;;;10.97;10.07;;;17.00;99.90;;;;;;5050576;28;20521;-70
2022/11/01 02:48:02;;;;;;;10.10;9.50;;;17.00;99.90;;;;;;5049255;28;20858;-69
2022/11/01 02:50:33;;;;;;;10.53;9.63;;;17.00;99.90;;;;;;5048601;28;20985;-70
2022/11/01 02:53:00;;;;;;;10.20;9.20;;;17.00;99.90;;;;;;5049627;28;20488;-70
2022/11/01 02:55:30;;;;;;;11.33;10.27;;;16.90;99.90;;;;;;5051405;28;20582;-70
2022/11/01 02:57:59;;;;;;;11.10;10.30;;;16.90;99.90;;;;;;5048196;28;20823;-70
2022/11/01 03:00:28;;;;;;;10.80;9.80;;;16.80;99.90;;;;;;5041196;28;20470;-70
2022/11/01 03:03:04;;;;;;;11.03;9.93;;;16.80;99.90;;;;;;5043761;28;20832;-70
2022/11/01 03:05:39;;;;;;;10.40;9.70;;;16.80;99.90;;;;;;5044860;28;21018;-70
2022/11/01 03:08:09;;;;;;;11.07;9.83;;;16.80;99.90;;;;;;5046881;28;20831;-69
2022/11/01 03:10:45;;;;;;;9.93;9.13;;;16.80;99.90;;;;;;5044139;28;20459;-68
2022/11/01 03:13:31;;;;;;;10.00;9.30;;;16.80;99.90;;;;;;5044697;28;20463;-69
2022/11/01 03:16:15;;;;;;;10.60;9.87;;;16.90;99.90;;;;;;5045142;28;20472;-69
2022/11/01 03:18:55;;;;;;;10.10;9.30;;;16.80;99.90;;;;;;5044122;28;20467;-69
2022/11/01 03:21:25;;;;;;;9.57;8.83;;;16.80;99.90;;;;;;5046009;28;20463;-69
2022/11/01 03:23:58;;;;;;;11.07;9.70;;;16.90;99.90;;;;;;5045094;28;20471;-71
2022/11/01 03:26:31;;;;;;;11.77;10.10;;;16.90;99.90;;;;;;5046875;28;20819;-68
2022/11/01 03:29:02;;;;;;;10.07;9.17;;;16.90;99.90;;;;;;5047153;28;20826;-68
2022/11/01 03:31:33;;;;;;;10.60;9.50;;;16.90;99.90;;;;;;5046592;28;20476;-69
2022/11/01 03:34:05;;;;;;;9.83;9.07;;;17.00;99.90;;;;;;5045370;28;20861;-69
2022/11/01 03:36:37;;;;;;;11.07;9.90;;;17.00;99.90;;;;;;5043520;28;20530;-68
2022/11/01 03:39:10;;;;;;;10.07;9.17;;;17.10;99.90;;;;;;5045607;28;20455;-68
2022/11/01 03:41:42;;;;;;;9.90;9.10;;;17.00;99.90;;;;;;5041464;28;20831;-69
2022/11/01 03:44:12;;;;;;;9.77;8.83;;;17.10;99.90;;;;;;5044934;28;20924;-69
2022/11/01 03:46:40;;;;;;;10.43;9.60;;;17.10;99.90;;;;;;5044969;28;20460;-69
2022/11/01 03:49:08;;;;;;;10.50;9.50;;;17.00;99.90;;;;;;5046191;28;20489;-69
2022/11/01 03:51:35;;;;;;;10.00;9.20;;;17.00;99.90;;;;;;5044290;28;20463;-69
2022/11/01 03:54:05;;;;;;;10.47;9.47;;;17.00;99.90;;;;;;5045151;28;20491;-70
2022/11/01 03:56:32;;;;;;;9.77;9.03;;;17.00;99.90;;;;;;5044252;28;20452;-69
2022/11/01 03:58:59;;;;;;;10.00;9.03;;;17.00;99.90;;;;;;5045160;28;20464;-70
2022/11/01 04:01:25;;;;;;;10.93;9.80;;;16.90;99.90;;;;;;5045486;28;20503;-69
2022/11/01 04:03:52;;;;;;;10.57;9.87;;;16.90;99.90;;;;;;5046850;28;20460;-70
2022/11/01 04:06:21;;;;;;;10.17;9.47;;;17.00;99.90;;;;;;5047120;28;20858;-69
2022/11/01 04:08:48;;;;;;;9.73;9.03;;;17.00;99.90;;;;;;5047077;28;20506;-69
2022/11/01 04:11:15;;;;;;;10.23;9.63;;;17.00;99.90;;;;;;5046663;28;20452;-70
2022/11/01 04:13:43;;;;;;;10.13;9.53;;;17.10;99.90;;;;;;5045028;28;20468;-69
2022/11/01 04:21:41;;;;;;;11.17;10.37;;;17.00;99.90;;;;;;5044456;28;20509;-69
2022/11/01 04:24:09;;;;;;;10.43;9.50;;;17.10;99.90;;;;;;5043668;28;20456;-70
2022/11/01 04:26:37;;;;;;;10.70;10.00;;;17.00;99.90;;;;;;5044046;28;20465;-70
2022/11/01 04:29:04;;;;;;;10.37;9.60;;;17.00;99.90;;;;;;5043156;28;20484;-68
2022/11/01 04:31:33;;;;;;;10.80;9.67;;;17.00;99.90;;;;;;5040012;28;20821;-70
2022/11/01 04:34:01;;;;;;;9.87;9.17;;;17.00;99.90;;;;;;5044557;28;20466;-69
2022/11/01 04:36:28;;;;;;;15.50;9.97;;;17.00;99.90;;;;;;5044939;28;20460;-69
2022/11/01 04:38:57;;;;;;;9.33;8.83;;;17.00;99.90;;;;;;5044488;28;20467;-69
2022/11/01 04:41:25;;;;;;;10.33;9.43;;;17.00;99.90;;;;;;5038612;28;20463;-69
2022/11/01 04:43:54;;;;;;;10.57;9.77;;;17.00;99.90;;;;;;5043449;28;20472;-68
2022/11/01 04:46:21;;;;;;;11.23;10.33;;;17.00;99.90;;;;;;5043022;28;20495;-69
2022/11/01 04:48:48;;;;;;;10.00;9.30;;;17.00;99.90;;;;;;5042119;28;20464;-69
2022/11/01 04:51:15;;;;;;;9.90;9.40;;;16.90;99.90;;;;;;5044108;28;21187;-69
2022/11/01 04:53:42;;;;;;;10.10;9.20;;;17.00;99.90;;;;;;5046085;28;20636;-69
2022/11/01 04:56:12;;;;;;;10.20;9.30;;;16.90;99.90;;;;;;5043892;28;20452;-69
2022/11/01 04:58:39;;;;;;;10.37;9.53;;;16.90;99.90;;;;;;5040594;28;20474;-68
2022/11/01 05:01:06;;;;;;;10.53;9.70;;;16.90;99.90;;;;;;5039445;28;20471;-68
2022/11/01 05:03:33;;;;;;;10.90;9.90;;;16.80;99.90;;;;;;5036771;28;20463;-69
2022/11/01 05:06:00;;;;;;;9.57;9.03;;;16.80;99.90;;;;;;5038730;28;20459;-69
2022/11/01 05:08:28;;;;;;;10.97;9.90;;;16.80;99.90;;;;;;5039565;28;20884;-68
2022/11/01 05:10:55;;;;;;;18.90;10.33;;;16.70;99.90;;;;;;5042850;28;20541;-69
2022/11/01 05:13:24;;;;;;;10.57;9.67;;;16.70;99.90;;;;;;5040071;28;20828;-68
2022/11/01 05:15:51;;;;;;;11.30;10.40;;;16.70;99.90;;;;;;5043232;28;20471;-68
2022/11/01 05:18:19;;;;;;;10.40;9.80;;;16.60;99.90;;;;;;5043030;28;20567;-69
2022/11/01 05:20:46;;;;;;;11.27;10.60;;;16.70;99.90;;;;;;5043855;28;20654;-69
2022/11/01 05:23:13;;;;;;;11.20;10.43;;;16.70;99.90;;;;;;5040972;28;20464;-68
2022/11/01 05:25:40;;;;;;;11.30;10.60;;;16.60;99.90;;;;;;5039583;28;20801;-69
2022/11/01 05:28:10;;;;;;;10.57;9.97;;;16.60;99.90;;;;;;5043219;28;20863;-69
2022/11/01 05:30:39;;;;;;;11.00;10.30;;;16.60;99.90;;;;;;5039934;28;20494;-68
2022/11/01 05:33:07;;;;;;;10.70;10.10;;;16.60;99.90;;;;;;5043915;28;20498;-69
2022/11/01 05:35:35;;;;;;;11.53;10.47;;;16.60;99.90;;;;;;5039894;28;20467;-69
2022/11/01 05:38:03;;;;;;;15.63;10.60;;;16.60;99.90;;;;;;5040588;28;20882;-69
2022/11/01 05:40:31;;;;;;;11.70;10.80;;;16.50;99.90;;;;;;5041527;28;20458;-69
2022/11/01 05:42:57;;;;;;;11.40;10.60;;;16.40;99.90;;;;;;5042982;28;20467;-69
2022/11/01 05:45:25;;;;;;;10.53;10.03;;;16.30;99.90;;;;;;5042759;28;20892;-69
2022/11/01 05:47:53;;;;;;;11.50;11.00;;;16.20;99.90;;;;;;5038278;28;20470;-69
2022/11/01 05:50:20;;;;;;;11.00;10.50;;;16.00;99.90;;;;;;5039956;28;20491;-69
2022/11/01 05:52:48;;;;;;;12.20;11.17;;;15.90;99.90;;;;;;5042044;28;20463;-68
2022/11/01 05:55:15;;;;;;;10.90;10.40;;;15.70;99.90;;;;;;5042136;28;20881;-69
2022/11/01 05:57:42;;;;;;;11.57;10.87;;;15.60;99.90;;;;;;5042311;28;20989;-68
2022/11/01 06:00:10;;;;;;;12.67;11.50;;;15.40;99.90;;;;;;5040753;28;20491;-69
2022/11/01 06:02:36;;;;;;;12.43;11.30;;;15.30;99.90;;;;;;5041351;28;20701;-69
2022/11/01 06:05:05;;;;;;;12.03;11.33;;;15.20;99.90;;;;;;5041430;28;20475;-68
2022/11/01 06:07:34;;;;;;;12.03;10.93;;;15.20;99.90;;;;;;5041483;28;20474;-68
2022/11/01 06:10:01;;;;;;;12.27;11.50;;;15.10;99.90;;;;;;5036814;28;20882;-70
2022/11/01 06:12:28;;;;;;;12.63;11.53;;;15.00;99.90;;;;;;5043982;28;20822;-70
2022/11/01 06:14:55;;;;;;;12.00;11.30;;;14.90;99.90;;;;;;5043486;28;20495;-68
2022/11/01 06:17:21;;;;;;;11.93;11.07;;;14.80;99.90;;;;;;5042867;28;20467;-70
2022/11/01 06:19:49;;;;;;;12.13;11.27;;;14.70;99.90;;;;;;5042886;28;20697;-68
2022/11/01 06:22:17;;;;;;;12.17;11.23;;;14.60;99.90;;;;;;5041835;28;20546;-69
2022/11/01 06:24:43;;;;;;;11.50;10.80;;;14.60;99.90;;;;;;5042641;28;20471;-70
2022/11/01 06:27:10;;;;;;;11.73;11.13;;;14.50;99.90;;;;;;5040767;28;20984;-68
2022/11/01 06:29:38;;;;;;;11.07;10.50;;;14.40;99.90;;;;;;5035509;28;21346;-70
2022/11/01 06:32:05;;;;;;;11.53;10.90;;;14.40;99.90;;;;;;5042641;28;20752;-68
2022/11/01 06:34:32;;;;;;;11.20;10.60;;;14.30;99.90;;;;;;5044441;28;20455;-69
2022/11/01 06:36:59;;;;;;;12.00;11.40;;;14.20;99.90;;;;;;5043215;28;20629;-68
2022/11/01 06:39:27;;;;;;;11.67;11.07;;;14.20;99.90;;;;;;5042030;28;21019;-68
2022/11/01 06:41:54;;;;;;;12.37;11.40;;;14.10;99.90;;;;;;5046861;28;20467;-68
2022/11/01 06:44:22;;;;;;;11.73;11.10;;;14.10;99.90;;;;;;5056489;28;20463;-68
2022/11/01 06:46:49;;;;;;;11.80;11.00;;;14.00;99.90;;;;;;5046402;28;20906;-69
2022/11/01 06:49:16;;;;;;;11.43;10.83;;;13.90;99.90;;;;;;5047425;28;20812;-68
2022/11/01 06:51:43;;;;;;;11.97;11.00;;;13.90;99.90;;;;;;5045153;28;20831;-70
2022/11/01 06:54:10;;;;;;;11.87;11.10;;;13.80;99.90;;;;;;5046048;28;20949;-69
2022/11/01 06:56:39;;;;;;;13.90;11.50;;;13.80;99.90;;;;;;5049401;28;20920;-70
2022/11/01 06:59:07;;;;;;;12.37;11.07;;;13.60;99.90;;;;;;5049157;28;20467;-70
2022/11/01 07:01:34;;;;;;;11.70;11.00;;;13.60;99.90;;;;;;5044935;28;20471;-70
2022/11/01 07:04:01;;;;;;;10.87;10.40;;;13.60;99.90;;;;;;5046254;28;20517;-69
2022/11/01 07:06:29;;;;;;;11.50;10.70;;;13.50;99.90;;;;;;5048416;28;21033;-68
2022/11/01 07:08:56;;;;;;;11.30;10.50;;;13.50;99.90;;;;;;5048757;28;20476;-69
2022/11/01 07:11:24;;;;;;;11.63;10.70;;;13.40;99.90;;;;;;5040453;28;20491;-68
2022/11/01 07:13:53;;;;;;;11.03;10.43;;;13.40;99.90;;;;;;5043912;28;20811;-68
2022/11/01 07:16:20;;;;;;;10.83;10.20;;;13.40;99.90;;;;;;5042468;28;20871;-68
2022/11/01 07:18:48;;;;;;;11.67;10.87;;;13.30;99.90;;;;;;5045561;28;20468;-68
2022/11/01 07:21:14;;;;;;;10.20;9.70;;;13.20;99.90;;;;;;5046384;28;20460;-68
2022/11/01 07:23:41;;;;;;;11.43;10.63;;;13.20;99.90;;;;;;5042640;28;20955;-70
2022/11/01 07:26:08;;;;;;;10.60;10.00;;;13.20;99.90;;;;;;5043904;28;20889;-68
2022/11/01 07:28:35;;;;;;;11.30;10.67;;;13.30;99.90;;;;;;5039465;28;20507;-69
2022/11/01 07:31:03;;;;;;;12.03;10.97;;;13.30;99.90;;;;;;5042399;28;20495;-70
2022/11/01 07:33:31;;;;;;;12.20;11.30;;;13.30;99.90;;;;;;5046187;28;21178;-68
2022/11/01 07:35:58;;;;;;;12.30;11.50;;;13.40;99.90;;;;;;5041866;28;20483;-69
2022/11/01 07:38:24;;;;;;;12.57;11.47;;;13.40;99.90;;;;;;5042206;28;20471;-69
2022/11/01 07:40:53;;;;;;;11.70;11.10;;;13.50;99.90;;;;;;5040740;28;20464;-69
2022/11/01 07:43:20;;;;;;;13.83;12.00;;;13.50;99.90;;;;;;5043390;28;20825;-69
2022/11/01 07:45:47;;;;;;;12.47;11.50;;;13.50;99.90;;;;;;5043405;28;20468;-70
2022/11/01 07:48:18;;;;;;;12.70;11.70;;;13.50;99.90;;;;;;5040761;28;20460;-70
2022/11/01 07:50:45;;;;;;;12.33;11.63;;;13.60;99.90;;;;;;5040675;28;20592;-68
2022/11/01 07:53:14;;;;;;;12.17;11.37;;;13.60;99.90;;;;;;5045489;28;20831;-69
2022/11/01 07:55:41;;;;;;;14.90;13.50;;;13.60;99.90;;;;;;5047490;28;20472;-68
2022/11/01 07:58:08;;;;;;;14.07;13.00;;;13.50;99.90;;;;;;5045166;28;20873;-68
2022/11/01 08:00:36;;;;;;;13.57;12.37;;;13.60;99.90;;;;;;5044641;28;20460;-70
2022/11/01 08:03:05;;;;;;;13.50;12.40;;;13.60;99.90;;;;;;5043725;28;20547;-70
2022/11/01 08:05:34;;;;;;;13.37;12.10;;;13.60;99.90;;;;;;5047440;28;20487;-70
2022/11/01 08:08:01;;;;;;;14.77;12.80;;;13.60;99.90;;;;;;5044725;28;20459;-68
2022/11/01 08:10:29;;;;;;;14.30;12.87;;;13.60;99.90;;;;;;5044837;28;20507;-68
2022/11/01 08:13:02;;;;;;;13.90;12.80;;;13.50;99.90;;;;;;5044030;28;20463;-68
2022/11/01 08:15:29;;;;;;;13.37;12.20;;;13.60;99.90;;;;;;5040369;28;20533;-70
2022/11/01 08:17:56;;;;;;;21.43;12.73;;;13.60;99.90;;;;;;5040314;28;20492;-69
2022/11/01 08:20:23;;;;;;;13.70;12.73;;;13.60;99.90;;;;;;5039046;28;20490;-68
2022/11/01 08:22:52;;;;;;;24.13;12.33;;;13.60;99.90;;;;;;5041996;28;20546;-69
2022/11/01 08:25:19;;;;;;;14.13;12.70;;;13.70;99.90;;;;;;5042101;28;20463;-68
2022/11/01 08:27:45;;;;;;;14.33;12.90;;;13.70;99.90;;;;;;5044370;28;20483;-69
2022/11/01 08:30:13;;;;;;;16.57;12.70;;;13.70;99.90;;;;;;5044798;28;20494;-69
2022/11/01 08:32:40;;;;;;;13.00;12.07;;;13.70;99.90;;;;;;5042118;28;20484;-69
2022/11/01 08:35:08;;;;;;;14.17;11.47;;;13.70;99.90;;;;;;5046541;28;20486;-69
2022/11/01 08:37:35;;;;;;;12.90;11.50;;;13.80;99.90;;;;;;5043525;28;20506;-68
2022/11/01 08:40:04;;;;;;;12.87;11.57;;;13.90;99.90;;;;;;5042002;28;20476;-69
2022/11/01 08:42:32;;;;;;;12.83;11.83;;;13.90;99.90;;;;;;5044045;28;20465;-69
2022/11/01 08:44:59;;;;;;;13.00;12.00;;;13.90;99.90;;;;;;5047523;28;20520;-68
2022/11/01 08:47:26;;;;;;;24.17;11.97;;;13.90;99.90;;;;;;5042730;28;20457;-69
2022/11/01 08:49:53;;;;;;;13.63;12.73;;;14.00;99.90;;;;;;5044295;28;20475;-69
2022/11/01 08:52:20;;;;;;;12.97;12.03;;;14.10;99.90;;;;;;5043567;28;20471;-69
2022/11/01 08:54:47;;;;;;;13.27;11.93;;;14.10;99.90;;;;;;5043310;28;20470;-68
2022/11/01 08:57:15;;;;;;;13.60;12.53;;;14.10;99.90;;;;;;5043961;28;21402;-68
2022/11/01 08:59:42;;;;;;;13.40;12.50;;;14.20;99.90;;;;;;5040133;28;20551;-69
2022/11/01 09:02:11;;;;;;;13.13;12.13;;;14.30;99.90;;;;;;5043006;28;20947;-69
2022/11/01 09:04:38;;;;;;;12.97;12.00;;;14.30;99.90;;;;;;5041837;28;20820;-69
2022/11/01 09:07:05;;;;;;;13.37;12.30;;;14.30;99.90;;;;;;5036598;28;20487;-68
2022/11/01 09:09:32;;;;;;;14.10;12.67;;;14.40;99.90;;;;;;5037600;28;20471;-69
2022/11/01 09:11:59;;;;;;;13.30;12.30;;;14.40;99.90;;;;;;5045235;28;20522;-69
2022/11/01 09:14:27;;;;;;;13.00;11.90;;;14.40;99.90;;;;;;5044245;28;20980;-68
2022/11/01 09:16:54;;;;;;;13.30;12.07;;;14.40;99.90;;;;;;5043090;28;21463;-68
2022/11/01 09:19:21;;;;;;;12.60;11.70;;;14.40;99.90;;;;;;5040612;28;20455;-68
2022/11/01 09:21:48;;;;;;;13.90;13.00;;;14.50;99.90;;;;;;5044260;28;20471;-68
2022/11/01 09:24:17;;;;;;;14.87;12.27;;;14.50;99.90;;;;;;5046690;28;20587;-70
2022/11/01 09:26:44;;;;;;;15.87;12.23;;;14.60;99.90;;;;;;5044101;28;20569;-69
2022/11/01 09:29:12;;;;;;;12.53;11.63;;;14.70;99.90;;;;;;5041892;28;20495;-68
2022/11/01 09:31:41;;;;;;;13.87;11.83;;;14.70;99.90;;;;;;5043950;28;20824;-68
2022/11/01 09:34:10;;;;;;;12.97;11.97;;;14.70;99.90;;;;;;5043006;28;20820;-68
2022/11/01 09:36:38;;;;;;;12.43;11.50;;;14.70;99.90;;;;;;5045814;28;20516;-68
2022/11/01 09:39:05;;;;;;;13.43;12.43;;;14.70;99.90;;;;;;5045403;28;20498;-68
2022/11/01 09:41:37;;;;;;;13.03;11.90;;;14.90;99.90;;;;;;5044814;28;20558;-68
2022/11/01 09:44:07;;;;;;;12.20;11.47;;;14.90;99.90;;;;;;5041430;28;20476;-69
2022/11/01 09:46:43;;;;;;;12.40;11.20;;;14.90;99.90;;;;;;5037725;28;20954;-68
2022/11/01 09:49:18;;;;;;;13.47;12.30;;;14.90;99.90;;;;;;5041780;28;20486;-68
2022/11/01 09:51:44;;;;;;;14.00;12.77;;;14.90;99.90;;;;;;5043124;28;20494;-68
2022/11/01 09:54:12;;;;;;;13.30;11.97;;;15.00;99.90;;;;;;5039019;28;20894;-69
2022/11/01 09:56:43;;;;;;;14.97;12.03;;;15.00;99.90;;;;;;5041686;28;20464;-68
2022/11/01 09:59:24;;;;;;;14.13;12.83;;;15.00;99.90;;;;;;5037740;28;20459;-69
2022/11/01 10:02:04;;;;;;;13.07;12.07;;;15.10;99.90;;;;;;5035694;28;20460;-68
2022/11/01 10:05:05;;;;;;;13.73;12.53;;;15.00;99.90;;;;;;5038136;28;20467;-68
2022/11/01 10:07:41;;;;;;;13.63;12.43;;;15.10;99.90;;;;;;5041514;28;20464;-68
2022/11/01 10:10:18;;;;;;;15.50;13.70;;;15.20;99.90;;;;;;5045120;28;20474;-68
2022/11/01 10:12:54;;;;;;;13.27;12.33;;;15.30;99.90;;;;;;5044201;28;20462;-69
2022/11/01 10:15:36;;;;;;;17.50;13.03;;;15.40;99.90;;;;;;5043295;28;20474;-68
2022/11/01 10:18:16;;;;;;;14.00;12.80;;;15.30;99.90;;;;;;5046781;28;20479;-69
2022/11/01 10:20:44;;;;;;;14.87;13.83;;;15.40;99.90;;;;;;5046666;28;20521;-68
2022/11/01 10:23:15;;;;;;;14.37;13.00;;;15.80;99.90;;;;;;5045856;28;20551;-69
2022/11/01 10:25:47;;;;;;;14.20;13.13;;;16.00;99.90;;;;;;5045149;28;20458;-69
2022/11/01 10:28:20;;;;;;;13.43;12.13;;;16.30;99.90;;;;;;5047499;28;20594;-69
2022/11/01 10:30:53;;;;;;;14.60;13.20;;;16.70;99.90;;;;;;5047926;28;20483;-68
2022/11/01 10:33:30;;;;;;;13.17;12.00;;;17.10;99.90;;;;;;5045728;28;20475;-70
2022/11/01 10:36:01;;;;;;;14.77;13.20;;;17.10;99.90;;;;;;5045236;28;20512;-68
2022/11/01 10:38:35;;;;;;;13.77;12.73;;;17.20;99.90;;;;;;5046110;28;20463;-68
2022/11/01 10:41:11;;;;;;;14.00;12.70;;;17.30;99.90;;;;;;5045893;28;20458;-68
2022/11/01 10:43:44;;;;;;;13.73;12.70;;;16.90;99.90;;;;;;5043992;28;20966;-70
2022/11/01 10:46:17;;;;;;;13.77;12.70;;;17.10;99.90;;;;;;5044067;28;20489;-68
2022/11/01 10:48:48;;;;;;;15.33;13.37;;;17.10;99.90;;;;;;5049058;28;20491;-69
2022/11/01 10:51:18;;;;;;;15.47;13.87;;;16.90;99.90;;;;;;5043556;28;20536;-69
2022/11/01 10:53:48;;;;;;;15.00;13.53;;;16.90;99.90;;;;;;5044493;28;20805;-68
2022/11/01 10:56:18;;;;;;;16.30;14.70;;;17.30;99.90;;;;;;5046209;28;20464;-69
2022/11/01 10:58:52;;;;;;;14.60;13.20;;;17.60;99.90;;;;;;5046175;28;20554;-67
2022/11/01 11:01:22;;;;;;;14.73;12.70;;;18.10;99.90;;;;;;5043426;28;20853;-69
2022/11/01 11:03:52;;;;;;;14.00;12.70;;;18.30;99.90;;;;;;5044472;28;20464;-68
2022/11/01 11:06:19;;;;;;;15.17;13.67;;;17.90;99.90;;;;;;5045920;28;20486;-69
2022/11/01 11:08:50;;;;;;;13.33;12.43;;;17.70;99.90;;;;;;5045834;28;20471;-69
2022/11/01 11:11:20;;;;;;;14.67;13.13;;;17.50;99.90;;;;;;5042943;28;20499;-70
2022/11/01 11:13:51;;;;;;;14.40;12.90;;;17.50;99.90;;;;;;5043667;28;20463;-68
2022/11/01 11:16:28;;;;;;;15.03;12.73;;;17.70;99.90;;;;;;5045899;28;21044;-69
2022/11/01 11:19:02;;;;;;;13.77;12.77;;;17.70;99.90;;;;;;5045669;28;20781;-70
2022/11/01 11:21:34;;;;;;;15.77;12.93;;;18.00;99.90;;;;;;5045367;28;20819;-70
2022/11/01 11:24:01;;;;;;;15.07;13.63;;;18.00;99.90;;;;;;5041710;28;20464;-68
2022/11/01 11:26:36;;;;;;;14.60;13.20;;;18.00;99.90;;;;;;5045397;28;20467;-68
2022/11/01 11:29:05;;;;;;;17.40;13.90;;;17.80;99.90;;;;;;5045751;28;20475;-68
2022/11/01 11:31:34;;;;;;;14.73;13.60;;;18.20;99.90;;;;;;5046799;28;20488;-68
2022/11/01 11:34:15;;;;;;;14.97;13.33;;;18.40;99.90;;;;;;5045147;28;20719;-68
2022/11/01 11:36:45;;;;;;;14.53;13.43;;;18.60;99.90;;;;;;5044263;28;20460;-68
2022/11/01 11:39:24;;;;;;;14.03;13.13;;;18.40;99.90;;;;;;5044799;28;20495;-69
2022/11/01 11:41:51;;;;;;;15.27;13.70;;;18.50;99.90;;;;;;5041203;28;21441;-68
2022/11/01 11:44:44;;;;;;;14.80;13.50;;;18.30;99.90;;;;;;5054197;28;20464;-68
2022/11/01 11:47:23;;;;;;;15.30;13.40;;;18.20;99.90;;;;;;5041783;28;20451;-68
2022/11/01 11:49:53;;;;;;;14.83;13.60;;;18.80;99.90;;;;;;5044381;28;20568;-68
2022/11/01 11:52:23;;;;;;;14.77;13.40;;;18.80;99.90;;;;;;5043626;28;20506;-68
2022/11/01 11:54:50;;;;;;;14.13;13.13;;;18.90;99.90;;;;;;5043298;28;20468;-68
2022/11/01 11:57:23;;;;;;;13.57;12.50;;;18.70;99.90;;;;;;5046388;28;20470;-70
2022/11/01 11:59:53;;;;;;;17.17;14.03;;;18.80;99.90;;;;;;5041288;28;20471;-68
2022/11/01 12:02:24;;;;;;;15.87;14.57;;;18.80;99.90;;;;;;5042218;28;21054;-68
2022/11/01 12:04:58;;;;;;;16.27;14.77;;;19.10;99.90;;;;;;5048569;28;20460;-68
2022/11/01 12:07:31;;;;;;;15.10;14.03;;;19.00;99.90;;;;;;5046840;28;20470;-68
2022/11/01 12:10:01;;;;;;;15.27;14.13;;;19.30;99.90;;;;;;5045666;28;20849;-70
2022/11/01 12:12:30;;;;;;;16.60;15.07;;;19.20;99.90;;;;;;5045361;28;21033;-69
2022/11/01 12:14:59;;;;;;;14.93;13.80;;;19.40;99.90;;;;;;5042380;28;20468;-69
2022/11/01 12:17:30;;;;;;;17.10;14.73;;;19.30;99.90;;;;;;5043499;28;20496;-69
2022/11/01 12:20:12;;;;;;;15.40;14.27;;;19.00;99.90;;;;;;5042516;28;20637;-68
2022/11/01 12:22:42;;;;;;;15.83;14.67;;;19.10;99.90;;;;;;5043494;28;20800;-68
2022/11/01 12:25:14;;;;;;;15.40;14.20;;;19.40;99.90;;;;;;5046804;28;20864;-69
2022/11/01 12:27:48;;;;;;;16.13;14.70;;;19.30;99.90;;;;;;5046210;28;20492;-70
2022/11/01 12:30:18;;;;;;;15.63;14.30;;;19.50;99.90;;;;;;5044275;28;20497;-68
2022/11/01 12:32:50;;;;;;;17.27;14.87;;;19.10;99.90;;;;;;5042956;28;20574;-68
2022/11/01 12:35:24;;;;;;;15.43;14.33;;;19.30;99.90;;;;;;5041761;28;20475;-70
2022/11/01 12:38:03;;;;;;;15.33;13.80;;;19.50;99.90;;;;;;5039744;28;20468;-69
2022/11/01 12:40:33;;;;;;;15.17;13.90;;;19.40;99.90;;;;;;5044072;28;20459;-69
2022/11/01 12:43:03;;;;;;;15.33;14.10;;;19.60;99.90;;;;;;5047569;28;20495;-69
2022/11/01 12:45:35;;;;;;;20.50;13.90;;;19.40;99.90;;;;;;5043346;28;20777;-68
2022/11/01 12:48:06;;;;;;;14.80;13.77;;;19.50;99.90;;;;;;5044661;28;20464;-68